Time;durP1;ratioP1;P1;durP2;ratioP2;P2;SDS_P1;SDS_P2;PMS_P1;PMS_P2;Temp;Humidity;BMP_temperature;BMP_pressure;BME280_temperature;BME280_humidity;BME280_pressure;Samples;Min_cycle;Max_cycle;Signal;HPM_P1;HPM_P2
2021/06/06 00:01:53;;;;;;;5.07;3.00;;;13.60;99.90;;;13.44;92.00;102223.47;3936599;30;20031;-68
2021/06/06 00:03:58;;;;;;;8.68;3.17;;;13.60;99.90;;;13.50;91.82;102228.22;3936580;30;20036;-68
2021/06/06 00:06:08;;;;;;;6.85;3.33;;;13.60;99.90;;;13.39;91.92;102223.03;3936821;30;20040;-67
2021/06/06 00:08:09;;;;;;;6.20;3.00;;;13.60;99.90;;;13.30;92.10;102227.34;3929576;30;20044;-67
2021/06/06 00:10:12;;;;;;;8.13;2.90;;;13.50;99.90;;;13.32;92.16;102227.22;3936502;30;20052;-67
2021/06/06 00:12:13;;;;;;;5.30;2.88;;;13.50;99.90;;;13.35;91.95;102229.59;3936455;30;20085;-67
2021/06/06 00:14:33;;;;;;;4.88;2.78;;;13.50;99.90;;;13.34;91.94;102225.28;3936628;30;20549;-67
2021/06/06 00:16:46;;;;;;;5.78;2.63;;;13.50;99.90;;;13.26;92.22;102231.28;3936518;30;20040;-67
2021/06/06 00:18:47;;;;;;;6.63;2.63;;;13.50;99.90;;;13.18;92.21;102224.00;3936352;30;20044;-67
2021/06/06 00:20:48;;;;;;;10.23;3.70;;;13.50;99.90;;;13.07;92.72;102216.13;3936638;30;20036;-67
2021/06/06 00:22:49;;;;;;;3.90;2.83;;;13.40;99.90;;;13.09;92.72;102219.50;3936356;30;20051;-68
2021/06/06 00:24:50;;;;;;;7.22;2.47;;;13.30;99.90;;;13.19;92.26;102223.03;3936253;30;20044;-68
2021/06/06 00:26:52;;;;;;;9.05;2.88;;;13.30;99.90;;;13.16;92.38;102220.66;3936132;30;20036;-68
2021/06/06 00:28:53;;;;;;;5.38;2.72;;;13.40;99.90;;;13.18;92.16;102224.00;3936208;30;20062;-68
2021/06/06 00:30:54;;;;;;;7.80;3.05;;;13.40;99.90;;;13.04;92.44;102221.72;3936076;30;20064;-67
2021/06/06 00:32:55;;;;;;;7.40;3.13;;;13.30;99.90;;;12.90;93.39;102214.16;3936376;30;20041;-67
2021/06/06 00:34:56;;;;;;;8.13;3.33;;;13.20;99.90;;;12.89;93.88;102216.91;3936105;30;20044;-67
2021/06/06 00:36:58;;;;;;;6.05;3.35;;;13.20;99.90;;;12.97;93.53;102225.84;3935984;30;20056;-67
2021/06/06 00:38:59;;;;;;;5.18;2.97;;;13.20;99.90;;;13.04;93.08;102224.34;3936190;30;20139;-67
2021/06/06 00:41:01;;;;;;;4.05;2.70;;;13.20;99.90;;;13.02;93.74;102222.81;3936143;30;20032;-67
2021/06/06 00:43:05;;;;;;;5.43;3.25;;;13.20;99.90;;;13.03;93.56;102214.72;3935732;30;20044;-67
2021/06/06 00:45:14;;;;;;;5.43;3.00;;;13.20;99.90;;;13.01;93.29;102210.53;3934773;30;20028;-67
2021/06/06 00:47:16;;;;;;;5.88;3.20;;;13.20;99.90;;;13.05;93.27;102212.75;3934889;30;20111;-67
2021/06/06 00:49:18;;;;;;;6.75;3.40;;;13.20;99.90;;;13.08;92.96;102217.81;3936042;30;20028;-68
2021/06/06 00:51:24;;;;;;;6.32;2.88;;;13.20;99.90;;;13.08;92.72;102217.81;3935831;30;20111;-67
2021/06/06 00:53:39;;;;;;;3.97;2.83;;;13.20;99.90;;;13.00;92.77;102215.00;3936081;30;20032;-67
2021/06/06 00:55:40;;;;;;;;;;;13.20;99.90;;;12.89;92.58;102198.38;3936497;30;20043;-67
2021/06/06 00:57:43;;;;;;;4.45;2.90;;;13.20;99.90;;;12.94;92.78;102204.94;3920446;30;20292;-67
2021/06/06 01:00:16;;;;;;;6.80;3.20;;;13.20;99.90;;;12.91;92.83;102207.84;3935874;30;20035;-67
2021/06/06 01:02:17;;;;;;;6.82;3.47;;;13.10;99.90;;;12.80;93.53;102207.13;3878186;30;20048;-67
2021/06/06 01:04:18;;;;;;;10.13;3.28;;;13.10;99.90;;;12.84;93.14;102208.56;3935963;30;20032;-67
2021/06/06 01:06:30;;;;;;;6.60;3.17;;;13.10;99.90;;;12.93;93.32;102208.56;3936006;30;20103;-67
2021/06/06 01:08:34;;;;;;;6.18;3.60;;;13.10;99.90;;;12.94;93.08;102210.25;3935977;30;20059;-67
2021/06/06 01:10:36;;;;;;;5.47;3.55;;;13.10;99.90;;;12.94;93.11;102210.25;3935653;30;20078;-67
2021/06/06 01:12:59;;;;;;;7.85;3.28;;;13.10;99.90;;;12.95;93.10;102209.28;3935925;30;20106;-67
2021/06/06 01:15:15;;;;;;;6.15;3.10;;;13.10;99.90;;;12.74;92.92;102182.88;3921639;30;20036;-67
2021/06/06 01:17:50;;;;;;;8.20;3.63;;;13.10;99.90;;;12.78;93.30;102205.44;3935925;30;20032;-67
2021/06/06 01:20:13;;;;;;;5.97;3.70;;;13.00;99.90;;;12.81;93.35;102208.81;3934648;30;20076;-67
2021/06/06 01:23:12;;;;;;;8.55;3.70;;;13.00;99.90;;;12.73;93.66;102204.19;3934596;30;20318;-67
2021/06/06 01:25:20;;;;;;;7.68;3.25;;;13.00;99.90;;;12.80;93.66;102210.63;3893458;30;20049;-67
2021/06/06 01:27:28;;;;;;;6.53;3.35;;;12.90;99.90;;;12.77;93.63;102206.44;3935841;30;20029;-68
2021/06/06 01:29:54;;;;;;;4.40;3.20;;;13.00;99.90;;;12.87;92.85;102219.72;3934478;30;20108;-67
2021/06/06 01:32:06;;;;;;;8.35;3.10;;;13.00;99.90;;;12.92;92.62;102212.19;3936178;30;20118;-67
2021/06/06 01:34:11;;;;;;;7.80;4.25;;;13.00;99.90;;;12.84;92.54;102209.41;3920715;30;20118;-67
2021/06/06 01:36:30;;;;;;;6.43;3.08;;;13.00;99.90;;;12.71;92.85;102200.84;3920032;30;20057;-67
2021/06/06 01:38:44;;;;;;;5.35;2.80;;;12.90;99.90;;;12.74;92.93;102197.91;3916263;30;20049;-67
2021/06/06 01:40:48;;;;;;;8.80;3.25;;;12.90;99.90;;;12.86;92.24;102204.78;3921083;30;20032;-67
2021/06/06 01:42:56;;;;;;;7.32;3.58;;;13.00;99.90;;;12.78;92.56;102194.84;3920021;30;20450;-67
2021/06/06 01:45:05;;;;;;;6.63;3.20;;;12.90;99.90;;;12.87;91.92;102205.63;3920246;30;20051;-67
2021/06/06 01:47:28;;;;;;;5.78;2.95;;;13.00;99.90;;;12.83;92.26;102197.13;3920632;30;20545;-67
2021/06/06 01:49:31;;;;;;;4.43;2.67;;;12.90;99.90;;;12.86;91.59;102196.00;3921157;30;20064;-67
2021/06/06 01:51:42;;;;;;;5.65;2.95;;;13.00;99.90;;;12.73;91.88;102186.50;3919919;30;20043;-67
2021/06/06 01:53:47;;;;;;;7.18;3.33;;;12.90;99.90;;;12.66;92.14;102184.53;3934611;30;20040;-67
2021/06/06 01:55:53;;;;;;;6.25;3.50;;;12.80;99.90;;;12.55;92.52;102179.31;3934120;30;20036;-68
2021/06/06 01:57:59;;;;;;;5.22;2.78;;;12.80;99.90;;;12.54;92.88;102172.38;3920057;30;20052;-67
2021/06/06 02:00:01;;;;;;;7.18;3.28;;;12.80;99.90;;;12.49;93.46;102177.19;3920104;30;20044;-67
2021/06/06 02:02:04;;;;;;;6.80;3.22;;;12.70;99.90;;;12.50;93.95;102176.25;3935340;30;20044;-67
2021/06/06 02:04:08;;;;;;;14.32;3.83;;;12.70;99.90;;;12.54;94.21;102180.31;3919813;30;20505;-67
2021/06/06 02:06:15;;;;;;;5.13;3.05;;;12.70;99.90;;;12.60;94.05;102177.94;3920052;30;20548;-67
2021/06/06 02:08:20;;;;;;;6.70;3.90;;;12.70;99.90;;;12.54;94.29;102182.94;3934440;30;20040;-67
2021/06/06 02:10:42;;;;;;;6.10;3.40;;;12.70;99.90;;;12.58;93.65;102176.41;3935373;30;20036;-67
2021/06/06 02:12:49;;;;;;;5.93;3.42;;;12.70;99.90;;;12.68;93.76;102177.28;3920438;30;20114;-67
2021/06/06 02:14:51;;;;;;;5.00;3.08;;;12.80;99.90;;;12.62;94.04;102173.38;3921749;30;20093;-68
2021/06/06 02:16:56;;;;;;;5.75;3.58;;;12.80;99.90;;;12.68;93.96;102177.28;3938002;30;20036;-67
2021/06/06 02:18:58;;;;;;;8.00;3.35;;;12.80;99.90;;;12.75;93.49;102171.28;3938164;30;20115;-67
2021/06/06 02:21:00;;;;;;;8.15;3.60;;;12.80;99.90;;;12.79;92.70;102169.22;3938162;30;20123;-67
2021/06/06 02:23:02;;;;;;;7.55;3.22;;;12.80;99.90;;;12.85;92.20;102162.53;3938026;30;20389;-67
2021/06/06 02:25:07;;;;;;;8.02;4.15;;;12.90;99.90;;;12.84;92.56;102155.59;3922390;30;20498;-67
2021/06/06 02:27:36;;;;;;;6.13;3.60;;;13.00;99.90;;;12.79;92.45;102161.28;3922577;30;20031;-67
2021/06/06 02:29:55;;;;;;;6.10;3.15;;;13.00;99.90;;;12.69;93.24;102163.06;3936724;30;20047;-67
2021/06/06 02:32:12;;;;;;;7.18;3.63;;;12.90;99.90;;;12.67;93.59;102171.13;3922365;30;20190;-67
2021/06/06 02:34:34;;;;;;;6.15;3.80;;;12.90;99.90;;;12.92;91.98;102158.38;3923024;30;20032;-67
2021/06/06 02:36:38;;;;;;;12.75;4.00;;;13.00;99.90;;;12.94;91.81;102159.06;3937710;30;20598;-67
2021/06/06 02:38:55;;;;;;;5.82;3.60;;;13.00;99.90;;;12.84;92.04;102163.53;3938048;30;20050;-67
2021/06/06 02:41:18;;;;;;;6.78;3.53;;;13.00;99.90;;;12.59;92.92;102156.91;3937806;30;20041;-67
2021/06/06 02:43:56;;;;;;;6.30;3.53;;;12.90;99.90;;;12.75;92.27;102157.25;3936739;30;20119;-67
2021/06/06 02:46:01;;;;;;;4.82;3.00;;;13.00;99.90;;;12.66;93.03;102160.69;3935492;30;20061;-67
2021/06/06 02:48:12;;;;;;;4.85;3.40;;;12.90;99.90;;;12.69;93.00;102155.94;3937877;30;20032;-67
2021/06/06 02:50:22;;;;;;;5.10;3.72;;;12.80;99.90;;;12.67;93.32;102154.41;3936546;30;20111;-68
2021/06/06 02:52:38;;;;;;;7.47;3.15;;;12.90;99.90;;;12.54;93.74;102153.84;3936584;30;20075;-67
2021/06/06 02:55:00;;;;;;;4.65;3.28;;;12.80;99.90;;;12.37;94.25;102149.16;3936867;30;20551;-67
2021/06/06 02:57:08;;;;;;;6.65;3.40;;;12.70;99.90;;;12.38;94.32;102158.78;3936409;30;20068;-67
2021/06/06 02:59:23;;;;;;;8.90;3.58;;;12.60;99.90;;;12.45;93.64;102155.47;3936478;30;20036;-67
2021/06/06 03:01:34;;;;;;;5.18;3.47;;;12.70;99.90;;;12.42;93.96;102154.91;3936573;30;20404;-68
2021/06/06 03:03:37;;;;;;;5.90;3.80;;;12.60;99.90;;;12.19;94.47;102149.78;3937556;30;20041;-67
2021/06/06 03:05:39;;;;;;;6.30;3.33;;;12.50;99.90;;;12.19;94.85;102146.28;3921731;30;20054;-67
2021/06/06 03:07:47;;;;;;;5.13;3.40;;;12.50;99.90;;;12.23;94.73;102152.16;3937569;30;20086;-67
2021/06/06 03:09:48;;;;;;;5.45;3.35;;;12.40;99.90;;;12.27;94.71;102156.22;3936221;30;20040;-68
2021/06/06 03:11:53;;;;;;;8.35;3.50;;;12.50;99.90;;;12.35;94.01;102149.31;3921715;30;20079;-68
2021/06/06 03:14:00;;;;;;;5.57;3.42;;;12.50;99.90;;;12.37;93.93;102144.69;3921632;30;20041;-67
2021/06/06 03:16:03;;;;;;;6.38;3.25;;;12.50;99.90;;;12.37;93.90;102151.78;3921651;30;20119;-67
2021/06/06 03:18:06;;;;;;;6.60;3.50;;;12.50;99.90;;;12.43;92.82;102154.75;3937448;30;20040;-67
2021/06/06 03:20:20;;;;;;;8.23;2.95;;;12.50;99.90;;;12.29;92.94;102151.63;3921441;30;20047;-67
2021/06/06 03:22:32;;;;;;;5.18;2.75;;;12.40;99.90;;;12.26;92.95;102154.53;3921626;30;20044;-67
2021/06/06 03:25:10;;;;;;;6.40;3.35;;;12.40;99.90;;;12.24;92.65;102149.41;3910299;30;20033;-67
2021/06/06 03:27:12;;;;;;;7.35;3.25;;;12.40;99.90;;;12.23;92.54;102149.50;3922168;30;20044;-67
2021/06/06 03:29:16;;;;;;;8.98;3.50;;;12.30;99.90;;;12.18;91.86;102145.44;3921422;30;20029;-67
2021/06/06 03:31:28;;;;;;;7.90;3.92;;;12.40;99.90;;;11.96;92.54;102148.28;3921337;30;20036;-67
2021/06/06 03:33:56;;;;;;;7.75;3.78;;;12.20;99.90;;;11.85;92.70;102142.22;3937231;30;20426;-67
2021/06/06 03:35:56;;;;;;;6.40;3.13;;;12.20;99.90;;;11.98;92.56;102148.13;3936877;30;20118;-67
2021/06/06 03:37:57;;;;;;;7.75;3.05;;;12.10;99.90;;;11.94;92.59;102139.66;3936908;30;20036;-67
2021/06/06 03:39:59;;;;;;;6.88;3.70;;;12.10;99.90;;;11.82;92.72;102140.69;3937130;30;20070;-67
2021/06/06 03:42:01;;;;;;;6.38;3.33;;;12.10;99.90;;;11.81;92.85;102143.44;3937074;30;20382;-67
2021/06/06 03:44:05;;;;;;;7.40;3.60;;;12.10;99.90;;;11.77;92.89;102134.94;3936868;30;20028;-67
2021/06/06 03:46:06;;;;;;;5.55;3.13;;;12.00;99.90;;;11.64;93.46;102136.91;3936596;30;20036;-67
2021/06/06 03:48:08;;;;;;;9.20;3.67;;;11.90;99.90;;;11.71;93.24;102132.00;3937222;30;20051;-67
2021/06/06 03:50:13;;;;;;;5.15;3.15;;;11.90;99.90;;;11.74;93.27;102139.66;3928395;30;20068;-67
2021/06/06 03:52:14;;;;;;;6.97;3.05;;;11.90;99.90;;;11.70;92.92;102120.56;3936616;30;20083;-67
2021/06/06 03:54:18;;;;;;;7.47;4.20;;;12.00;99.90;;;11.86;93.78;102142.06;3936757;30;20032;-67
2021/06/06 03:56:20;;;;;;;5.30;2.72;;;12.00;99.90;;;11.90;93.73;102140.84;3936921;30;20059;-67
2021/06/06 03:58:23;;;;;;;5.75;2.88;;;12.00;99.90;;;11.95;92.75;102133.38;3936732;30;20097;-67
2021/06/06 04:00:41;;;;;;;6.00;3.30;;;12.00;99.90;;;11.84;92.62;102136.09;3936653;30;20044;-67
2021/06/06 04:02:44;;;;;;;4.60;3.17;;;12.00;99.90;;;11.80;92.39;102133.84;3936750;30;20497;-67
2021/06/06 04:04:45;;;;;;;8.40;4.17;;;12.00;99.90;;;11.74;92.93;102137.81;3936704;30;20036;-67
2021/06/06 04:06:47;;;;;;;6.32;4.03;;;11.90;99.90;;;11.76;92.74;102132.44;3936804;30;20336;-67
2021/06/06 04:08:48;;;;;;;4.93;3.38;;;11.90;99.90;;;11.58;93.08;102132.97;3936631;30;20028;-67
2021/06/06 04:10:50;;;;;;;6.70;3.60;;;11.90;99.90;;;11.55;94.17;102132.41;3936828;30;20087;-67
2021/06/06 04:12:51;;;;;;;4.05;3.00;;;11.80;99.90;;;11.68;94.14;102137.50;3936749;30;20400;-67
2021/06/06 04:14:53;;;;;;;7.93;3.00;;;11.80;99.90;;;11.66;93.97;102135.81;3936531;30;20130;-67
2021/06/06 04:16:53;;;;;;;6.10;3.67;;;11.80;99.90;;;11.61;94.26;102127.44;3936523;30;20043;-67
2021/06/06 04:18:54;;;;;;;7.03;3.28;;;11.80;99.90;;;11.60;94.00;102131.03;3936830;30;20505;-67
2021/06/06 04:20:59;;;;;;;7.22;3.60;;;11.80;99.90;;;11.61;94.04;102130.09;3936616;30;20035;-67
2021/06/06 04:23:00;;;;;;;6.35;3.15;;;11.80;99.90;;;11.59;94.14;102134.63;3936457;30;20041;-67
2021/06/06 04:25:02;;;;;;;4.53;2.90;;;11.80;99.90;;;11.54;94.43;102133.34;3936474;30;20370;-67
2021/06/06 04:27:04;;;;;;;7.65;3.22;;;11.80;99.90;;;11.56;94.70;102129.59;3936689;30;20032;-67
2021/06/06 04:29:08;;;;;;;5.07;2.70;;;11.80;99.90;;;11.50;94.92;102135.41;3936688;30;20453;-67
2021/06/06 04:31:10;;;;;;;4.68;3.42;;;11.80;99.90;;;11.52;94.93;102132.66;3936489;30;20088;-67
2021/06/06 04:33:11;;;;;;;5.80;3.17;;;11.80;99.90;;;11.52;94.77;102136.13;3936239;30;20040;-67
2021/06/06 04:35:14;;;;;;;4.90;3.00;;;11.70;99.90;;;11.58;94.70;102132.13;3936439;30;20083;-67
2021/06/06 04:37:16;;;;;;;5.22;3.15;;;11.90;99.90;;;11.59;94.86;102132.00;3936300;30;20059;-67
2021/06/06 04:39:17;;;;;;;5.10;3.20;;;11.90;99.90;;;11.68;94.31;102132.22;3936311;30;20044;-67
2021/06/06 04:41:19;;;;;;;4.88;2.75;;;11.90;99.90;;;11.59;94.46;102133.78;3936383;30;20039;-67
2021/06/06 04:43:21;;;;;;;6.32;3.33;;;11.90;99.90;;;11.51;94.87;102130.97;3936306;30;20044;-67
2021/06/06 04:45:22;;;;;;;5.45;3.00;;;11.90;99.90;;;11.47;95.06;102125.09;3936129;30;20050;-67
2021/06/06 04:47:23;;;;;;;6.43;2.95;;;11.90;99.90;;;11.52;95.17;102132.66;3936274;30;20039;-67
2021/06/06 04:49:25;;;;;;;6.22;3.17;;;11.80;99.90;;;11.62;94.72;102137.03;3936071;30;20497;-67
2021/06/06 04:51:26;;;;;;;7.28;2.60;;;11.90;99.90;;;11.58;95.17;102137.44;3936226;30;20036;-67
2021/06/06 04:53:27;;;;;;;5.35;2.78;;;11.90;99.90;;;11.64;95.25;102150.13;3936387;30;20501;-67
2021/06/06 04:55:29;;;;;;;5.22;2.90;;;11.90;99.90;;;11.60;95.57;102148.69;3936166;30;20044;-67
2021/06/06 04:57:29;;;;;;;5.65;3.60;;;11.90;99.90;;;11.64;95.62;102148.31;3935985;30;20040;-67
2021/06/06 04:59:35;;;;;;;3.85;3.20;;;11.90;99.90;;;11.60;94.90;102136.31;3936002;30;20042;-67
2021/06/06 05:01:36;;;;;;;7.22;3.10;;;11.90;99.90;;;11.45;95.41;102120.91;3935879;30;20036;-67
2021/06/06 05:03:37;;;;;;;5.90;3.33;;;12.00;99.90;;;11.61;95.70;102143.31;3935838;30;20075;-67
2021/06/06 05:05:39;;;;;;;5.22;3.60;;;12.00;99.90;;;11.64;95.42;102150.13;3935730;30;20465;-67
2021/06/06 05:07:40;;;;;;;5.45;3.00;;;12.00;99.90;;;11.71;95.91;102153.94;3936136;30;20097;-67
2021/06/06 05:09:40;;;;;;;10.77;3.25;;;12.00;99.90;;;11.74;95.70;102142.31;3936135;30;20111;-68
2021/06/06 05:11:41;;;;;;;6.25;3.00;;;12.00;99.90;;;11.77;95.87;102142.03;3936108;30;20043;-67
2021/06/06 05:13:42;;;;;;;5.60;3.38;;;12.10;99.90;;;11.87;96.00;102142.91;3935898;30;20504;-67
2021/06/06 05:15:43;;;;;;;6.70;3.28;;;12.10;99.90;;;11.91;95.23;102144.34;3935945;30;20032;-67
2021/06/06 05:17:44;;;;;;;6.00;2.85;;;12.20;99.90;;;12.03;95.23;102138.00;3936081;30;20078;-67
2021/06/06 05:19:45;;;;;;;4.82;3.25;;;12.30;99.90;;;12.04;95.02;102142.31;3935982;30;20036;-67
2021/06/06 05:21:46;;;;;;;7.75;3.75;;;12.30;99.90;;;12.09;94.94;102142.78;3935880;30;20039;-67
2021/06/06 05:23:47;;;;;;;5.28;3.53;;;12.30;99.90;;;12.19;94.11;102146.28;3935971;30;20040;-67
2021/06/06 05:25:48;;;;;;;5.47;3.10;;;12.40;99.90;;;12.18;94.74;102142.81;3935907;30;20031;-67
2021/06/06 05:27:49;;;;;;;6.80;3.30;;;12.50;99.90;;;12.24;94.70;102144.09;3935913;30;20040;-67
2021/06/06 05:29:50;;;;;;;4.70;2.75;;;12.50;99.90;;;12.25;94.76;102147.56;3935505;30;20154;-67
2021/06/06 05:31:52;;;;;;;7.18;3.35;;;12.60;99.90;;;12.15;95.13;102148.38;3934189;30;20036;-67
2021/06/06 05:33:53;;;;;;;6.30;3.65;;;12.60;99.90;;;12.20;95.36;102150.63;3935846;30;20037;-67
2021/06/06 05:35:55;;;;;;;5.55;3.47;;;12.60;99.90;;;12.25;94.79;102129.88;3935536;30;20056;-67
2021/06/06 05:37:57;;;;;;;7.07;3.72;;;12.60;99.90;;;12.37;95.02;102152.63;3919938;30;20040;-67
2021/06/06 05:39:58;;;;;;;7.05;3.33;;;12.60;99.90;;;12.40;94.33;102154.19;3935801;30;20072;-67
2021/06/06 05:41:59;;;;;;;5.80;2.88;;;12.80;99.90;;;12.46;94.26;102151.00;3935741;30;20400;-67
2021/06/06 05:44:00;;;;;;;7.30;3.40;;;12.80;99.90;;;12.50;94.52;102160.34;3935637;30;20063;-67
2021/06/06 05:46:01;;;;;;;7.60;3.70;;;12.80;99.90;;;12.81;91.91;102156.69;3935407;30;20032;-67
2021/06/06 05:48:04;;;;;;;9.82;4.07;;;13.00;99.90;;;12.95;91.17;102163.41;3935565;30;20044;-67
2021/06/06 05:50:08;;;;;;;6.63;3.50;;;13.10;99.90;;;12.87;91.49;102163.25;3938447;30;20067;-67
2021/06/06 05:52:09;;;;;;;8.02;3.70;;;13.20;99.90;;;13.09;89.56;102163.88;3938516;30;20105;-67
2021/06/06 05:54:10;;;;;;;8.98;3.53;;;13.40;99.90;;;13.15;89.31;102158.03;3938566;30;20084;-67
2021/06/06 05:56:11;;;;;;;6.57;3.65;;;13.50;99.90;;;13.11;88.73;102161.09;3938570;30;20036;-67
2021/06/06 05:58:15;;;;;;;5.32;3.20;;;13.50;99.90;;;13.27;88.64;102170.16;3938643;30;20038;-67
2021/06/06 06:00:23;;;;;;;4.97;3.57;;;13.60;99.90;;;13.35;88.20;102166.81;3938228;30;20097;-67
2021/06/06 06:02:24;;;;;;;7.53;3.28;;;13.70;99.90;;;13.41;87.70;102171.56;3938121;30;20040;-68
2021/06/06 06:04:25;;;;;;;6.68;3.63;;;13.80;99.90;;;13.44;87.18;102171.28;3938344;30;20078;-68
2021/06/06 06:06:26;;;;;;;6.07;3.13;;;13.90;99.90;;;13.51;87.57;102166.25;3938360;30;20025;-68
2021/06/06 06:08:31;;;;;;;7.82;3.67;;;13.90;99.90;;;13.48;87.54;102171.84;3938327;30;20036;-67
2021/06/06 06:10:32;;;;;;;5.20;3.25;;;14.00;99.90;;;13.53;87.45;102169.63;3936903;30;20410;-67
2021/06/06 06:12:35;;;;;;;8.38;3.53;;;14.00;99.90;;;13.55;87.23;102173.81;3938269;30;20086;-67
2021/06/06 06:14:36;;;;;;;6.10;3.58;;;14.10;99.90;;;13.69;86.59;102165.41;3938067;30;20401;-68
2021/06/06 06:16:38;;;;;;;7.03;3.42;;;14.10;99.90;;;13.67;87.32;102161.22;3938211;30;20032;-67
2021/06/06 06:18:39;;;;;;;6.53;3.10;;;14.20;99.90;;;13.71;87.39;102163.44;3922251;30;20098;-67
2021/06/06 06:20:41;;;;;;;6.45;3.60;;;14.20;99.90;;;13.84;86.41;102163.16;3938144;30;20439;-67
2021/06/06 06:22:43;;;;;;;7.00;3.88;;;14.20;99.90;;;13.92;85.88;102165.09;3938040;30;20044;-67
2021/06/06 06:24:44;;;;;;;7.15;3.72;;;14.30;99.90;;;13.96;86.40;102166.47;3938091;30;20036;-67
2021/06/06 06:26:45;;;;;;;6.38;4.07;;;14.30;99.90;;;13.99;86.51;102167.03;3937904;30;20043;-67
2021/06/06 06:28:46;;;;;;;5.18;3.35;;;14.40;99.90;;;13.98;87.12;102168.00;3938115;30;20028;-67
2021/06/06 06:30:47;;;;;;;7.78;3.42;;;14.40;99.90;;;14.03;87.13;102160.47;3937839;30;20036;-67
2021/06/06 06:32:48;;;;;;;8.27;3.95;;;14.40;99.90;;;13.99;87.43;102167.03;3938010;30;20188;-67
2021/06/06 06:34:49;;;;;;;5.22;3.53;;;14.50;99.90;;;14.01;87.64;102161.59;3937665;30;20044;-67
2021/06/06 06:36:50;;;;;;;4.40;2.95;;;14.50;99.90;;;14.03;88.06;102165.78;3937574;30;20060;-67
2021/06/06 06:38:53;;;;;;;6.28;3.15;;;14.50;99.90;;;14.20;86.83;102159.72;3937759;30;20119;-67
2021/06/06 06:40:54;;;;;;;4.10;3.35;;;14.60;99.90;;;14.42;85.54;102160.38;3937698;30;20094;-67
2021/06/06 06:42:55;;;;;;;6.53;2.90;;;14.70;99.90;;;14.46;85.14;102164.38;3937485;30;20040;-67
2021/06/06 06:44:56;;;;;;;5.57;3.58;;;14.80;99.90;;;14.47;84.21;102163.41;3937742;30;20025;-67
2021/06/06 06:46:57;;;;;;;5.72;3.40;;;14.90;99.90;;;14.52;85.15;102164.63;3937804;30;20047;-67
2021/06/06 06:48:59;;;;;;;6.07;3.17;;;15.00;99.90;;;14.64;85.34;102167.94;3937662;30;20036;-67
2021/06/06 06:51:00;;;;;;;7.28;3.13;;;15.00;99.90;;;14.70;85.48;102164.69;3937662;30;20079;-67
2021/06/06 06:53:02;;;;;;;9.88;4.45;;;15.10;99.90;;;14.75;84.22;102165.94;3937707;30;20194;-67
2021/06/06 06:55:14;;;;;;;4.95;2.78;;;15.20;99.90;;;14.82;84.61;102160.84;3937653;30;20040;-67
2021/06/06 06:57:14;;;;;;;4.45;3.05;;;15.30;99.90;;;14.82;84.83;102167.00;3937528;30;20106;-68
2021/06/06 06:59:15;;;;;;;7.25;3.58;;;15.30;99.90;;;14.78;84.76;102170.91;3937353;30;20040;-67
2021/06/06 07:01:18;;;;;;;9.77;3.70;;;15.30;99.90;;;14.83;83.90;102163.38;3936642;30;20062;-67
2021/06/06 07:03:27;;;;;;;8.93;4.70;;;15.40;99.90;;;14.95;83.73;102166.63;3937524;30;20044;-68
2021/06/06 07:05:29;;;;;;;5.20;3.35;;;15.40;99.90;;;15.06;83.96;102173.56;3937461;30;20039;-68
2021/06/06 07:07:29;;;;;;;5.65;3.90;;;15.50;99.90;;;15.13;83.72;102177.28;3937626;30;20071;-68
2021/06/06 07:09:31;;;;;;;5.45;3.00;;;15.60;99.90;;;15.19;84.20;102172.22;3937410;30;20028;-67
2021/06/06 07:11:32;;;;;;;5.22;3.10;;;15.70;99.90;;;15.29;83.66;102175.63;3937346;30;20036;-67
2021/06/06 07:13:33;;;;;;;5.47;3.83;;;15.70;99.90;;;15.30;82.98;102166.66;3937173;30;20068;-67
2021/06/06 07:15:35;;;;;;;6.90;3.05;;;15.90;99.90;;;15.26;82.93;102161.81;3937175;30;20036;-67
2021/06/06 07:17:36;;;;;;;9.52;3.85;;;15.90;99.90;;;15.36;82.61;102168.72;3937417;30;20063;-67
2021/06/06 07:19:37;;;;;;;7.10;3.72;;;15.90;99.90;;;15.48;82.37;102158.72;3937368;30;20036;-67
2021/06/06 07:21:39;;;;;;;6.75;4.10;;;16.00;99.90;;;15.55;81.91;102166.91;3937426;30;20120;-67
2021/06/06 07:23:42;;;;;;;6.50;4.80;;;16.10;99.90;;;15.61;82.91;102168.97;3937356;30;20467;-67
2021/06/06 07:25:46;;;;;;;7.38;3.53;;;16.10;99.90;;;15.71;82.47;102153.75;3937407;30;20035;-67
2021/06/06 07:27:47;;;;;;;7.13;3.13;;;16.20;99.90;;;15.75;82.64;102160.41;3937277;30;20036;-67
2021/06/06 07:29:50;;;;;;;8.23;4.22;;;16.30;99.90;;;15.91;82.82;102156.06;3936766;30;20066;-68
2021/06/06 07:31:55;;;;;;;6.30;3.47;;;16.40;99.90;;;15.94;82.60;102158.41;3937356;30;20436;-68
2021/06/06 07:33:55;;;;;;;8.82;3.78;;;16.50;99.90;;;15.90;82.78;102151.72;3937021;30;20071;-68
2021/06/06 07:35:57;;;;;;;6.10;3.45;;;16.50;99.90;;;16.04;82.82;102163.59;3937072;30;20060;-68
2021/06/06 07:37:59;;;;;;;7.28;3.72;;;16.70;99.90;;;16.01;83.21;102154.13;3936922;30;20040;-68
2021/06/06 07:40:03;;;;;;;9.45;3.45;;;16.70;99.90;;;16.21;82.63;102151.25;3937222;30;20492;-68
2021/06/06 07:42:04;;;;;;;6.40;2.85;;;16.80;99.90;;;16.28;83.26;102157.59;3937075;30;20032;-67
2021/06/06 07:44:05;;;;;;;6.50;3.17;;;16.90;99.90;;;16.39;82.17;102152.00;3936672;30;20099;-67
2021/06/06 07:46:07;;;;;;;8.00;2.88;;;16.90;99.90;;;16.58;82.11;102162.41;3936691;30;20032;-68
2021/06/06 07:48:10;;;;;;;5.68;2.85;;;17.00;99.90;;;16.63;81.40;102157.47;3937181;30;20067;-67
2021/06/06 07:50:22;;;;;;;7.30;3.58;;;17.20;99.90;;;16.62;81.41;102150.47;3937003;30;20044;-67
2021/06/06 07:52:23;;;;;;;6.75;3.30;;;17.20;99.90;;;16.74;82.06;102161.66;3936643;30;20036;-68
2021/06/06 07:54:24;;;;;;;5.95;2.80;;;17.30;99.90;;;16.74;78.32;102161.66;3936730;30;20036;-67
2021/06/06 07:56:25;;;;;;;6.60;2.83;;;17.50;99.90;;;16.87;78.51;102160.22;3936972;30;20071;-68
2021/06/06 07:58:38;;;;;;;6.55;2.88;;;17.60;99.90;;;17.07;77.90;102156.25;3936734;30;20034;-67
2021/06/06 08:00:43;;;;;;;4.43;2.45;;;17.70;99.90;;;17.24;78.02;102162.44;3936498;30;20036;-67
2021/06/06 08:02:44;;;;;;;6.82;3.08;;;17.80;99.90;;;17.39;78.59;102160.78;3936564;30;20062;-67
2021/06/06 08:04:45;;;;;;;4.65;2.75;;;18.00;99.90;;;17.54;78.55;102151.16;3936822;30;20067;-67
2021/06/06 08:06:47;;;;;;;4.80;2.58;;;18.10;99.90;;;17.70;75.29;102163.66;3936737;30;20032;-67
2021/06/06 08:08:49;;;;;;;4.07;2.00;;;18.30;99.90;;;17.72;74.43;102160.81;3936442;30;20028;-67
2021/06/06 08:10:56;;;;;;;4.68;1.70;;;18.40;99.90;;;17.81;68.81;102165.13;3936585;30;20040;-67
2021/06/06 08:12:57;;;;;;;5.72;1.70;;;18.50;99.90;;;17.95;67.99;102157.28;3936361;30;20040;-68
2021/06/06 08:14:58;;;;;;;4.60;1.83;;;18.60;99.90;;;18.09;69.43;102158.44;3936211;30;20040;-68
2021/06/06 08:16:59;;;;;;;4.78;1.65;;;18.80;99.90;;;18.27;70.58;102151.03;3936486;30;20543;-68
2021/06/06 08:19:00;;;;;;;3.30;1.80;;;18.90;99.90;;;18.46;70.94;102161.28;3936473;30;20430;-68
2021/06/06 08:21:14;;;;;;;4.10;1.90;;;19.00;99.90;;;18.39;66.32;102159.50;3936361;30;20036;-67
2021/06/06 08:23:16;;;;;;;2.65;1.63;;;19.20;99.90;;;18.24;67.11;102157.56;3936487;30;20043;-67
2021/06/06 08:25:22;;;;;;;5.25;2.00;;;19.20;99.90;;;18.41;66.95;102161.00;3936494;30;20119;-68
2021/06/06 08:27:23;;;;;;;3.47;1.73;;;19.30;99.90;;;18.35;67.79;102159.00;3936427;30;20032;-68
2021/06/06 08:29:24;;;;;;;3.35;1.63;;;19.30;99.90;;;18.42;68.31;102157.31;3936130;30;20037;-67
2021/06/06 08:31:32;;;;;;;3.33;1.90;;;19.40;99.90;;;18.72;70.27;102153.03;3936234;30;20024;-67
2021/06/06 08:33:35;;;;;;;3.95;2.08;;;19.50;99.90;;;18.89;67.29;102159.13;3936280;30;20115;-68
2021/06/06 08:35:36;;;;;;;2.50;1.95;;;19.60;99.90;;;18.88;66.58;102152.94;3936123;30;20511;-68
2021/06/06 08:37:37;;;;;;;3.80;1.60;;;19.70;99.90;;;19.10;66.30;102154.81;3936101;30;20040;-68
2021/06/06 08:39:38;;;;;;;4.55;2.00;;;19.90;99.90;;;19.14;65.69;102160.66;3936077;30;20445;-68
2021/06/06 08:41:51;;;;;;;4.03;1.83;;;19.90;99.90;;;19.19;64.86;102155.59;3936164;30;20047;-68